Time;durP1;ratioP1;P1;durP2;ratioP2;P2;SDS_P1;SDS_P2;PMS_P1;PMS_P2;Temp;Humidity;BMP_temperature;BMP_pressure;BME280_temperature;BME280_humidity;BME280_pressure;Samples;Min_cycle;Max_cycle;Signal;HPM_P1;HPM_P2
2021/05/10 00:01:33;;;;;;;15.05;4.55;;;;;;;10.88;56.77;98342.85;126102;1101;22743;-77
2021/05/10 00:04:01;;;;;;;10.60;4.50;;;;;;;10.86;56.79;98338.73;126188;1096;22929;-77
2021/05/10 00:06:29;;;;;;;11.88;4.13;;;;;;;10.82;56.49;98343.86;125880;1101;22888;-77
2021/05/10 00:08:57;;;;;;;11.55;4.75;;;;;;;10.79;56.74;98347.89;125878;1101;22854;-77
2021/05/10 00:11:27;;;;;;;12.75;5.20;;;;;;;10.76;56.88;98337.48;125909;1102;22790;-77
2021/05/10 00:13:55;;;;;;;8.95;4.55;;;;;;;10.73;57.07;98348.91;126173;1101;22761;-77
2021/05/10 00:16:23;;;;;;;9.73;4.47;;;;;;;10.71;57.07;98342.89;126087;1096;22743;-77
2021/05/10 00:18:51;;;;;;;9.65;4.60;;;;;;;10.67;56.87;98343.63;126030;1101;23684;-77
2021/05/10 00:21:18;;;;;;;8.35;3.80;;;;;;;10.65;57.38;98349.31;126142;1101;22779;-77
2021/05/10 00:24:00;;;;;;;15.05;4.05;;;;;;;10.61;57.61;98346.26;126051;1101;22744;-77
2021/05/10 00:26:41;;;;;;;9.65;4.05;;;;;;;10.58;57.27;98346.75;126055;1096;22772;-77
2021/05/10 00:29:08;;;;;;;8.50;4.40;;;;;;;10.55;56.98;98339.09;125849;1101;22765;-77
2021/05/10 00:31:36;;;;;;;9.60;4.80;;;;;;;10.53;57.46;98338.49;125835;1096;22761;-77
2021/05/10 00:34:04;;;;;;;11.50;5.10;;;;;;;10.50;57.05;98344.45;125936;1101;22771;-77
2021/05/10 00:36:31;;;;;;;10.70;5.00;;;;;;;10.47;57.76;98347.66;126090;1101;24405;-77
2021/05/10 00:38:59;;;;;;;8.95;4.55;;;;;;;10.43;57.26;98343.80;126139;1096;26266;-77
2021/05/10 00:41:26;;;;;;;8.77;4.60;;;;;;;10.41;57.58;98340.47;125862;1096;25868;-77
2021/05/10 00:43:54;;;;;;;8.80;4.45;;;;;;;10.38;57.47;98336.36;125801;1103;22741;-77
2021/05/10 00:46:21;;;;;;;9.30;4.25;;;;;;;10.35;57.44;98344.19;126156;1101;22747;-77
2021/05/10 00:48:49;;;;;;;10.17;4.63;;;;;;;10.32;57.29;98336.51;125839;1096;27377;-77
2021/05/10 00:51:31;;;;;;;9.80;4.05;;;;;;;10.28;57.49;98336.14;126058;1101;22802;-77
2021/05/10 00:53:59;;;;;;;9.45;3.90;;;;;;;10.24;57.38;98330.38;126182;1101;22740;-77
2021/05/10 00:56:27;;;;;;;8.40;3.60;;;;;;;10.25;57.44;98331.19;125853;1103;22780;-77
2021/05/10 00:58:55;;;;;;;9.05;3.40;;;;;;;10.22;57.68;98337.96;126066;1096;25925;-77
2021/05/10 01:01:37;;;;;;;6.60;3.10;;;;;;;10.21;57.49;98330.04;125867;1096;27288;-77
2021/05/10 01:04:05;;;;;;;7.20;3.30;;;;;;;10.18;57.96;98325.08;126103;1101;22758;-77
2021/05/10 01:06:33;;;;;;;8.20;3.70;;;;;;;10.17;57.58;98326.17;126116;1095;27205;-77
2021/05/10 01:09:00;;;;;;;10.60;4.20;;;;;;;10.15;57.65;98339.20;126178;1101;22740;-77
2021/05/10 01:11:28;;;;;;;11.55;4.80;;;;;;;10.15;57.60;98333.75;126051;1102;22761;-77
2021/05/10 01:13:56;;;;;;;9.57;4.20;;;;;;;10.13;57.54;98333.16;125868;1101;22754;-77
2021/05/10 01:16:23;;;;;;;8.55;3.75;;;;;;;10.11;57.85;98335.30;126050;1096;22742;-77
2021/05/10 01:18:52;;;;;;;7.40;3.50;;;;;;;10.11;58.18;98333.42;126109;1096;23251;-77
2021/05/10 01:21:20;;;;;;;8.60;3.77;;;;;;;10.09;57.64;98332.81;126150;1096;26210;-77
2021/05/10 01:23:48;;;;;;;7.95;3.55;;;;;;;10.08;58.09;98332.00;126106;1101;22758;-77
2021/05/10 01:26:16;;;;;;;7.85;3.70;;;;;;;10.07;57.44;98333.09;126107;1101;24418;-77
2021/05/10 01:28:43;;;;;;;8.90;3.05;;;;;;;10.06;57.53;98325.98;126023;1101;22719;-77
2021/05/10 01:31:15;;;;;;;7.87;3.47;;;;;;;10.04;58.12;98330.03;126037;1101;24514;-77
2021/05/10 01:33:43;;;;;;;7.23;3.60;;;;;;;10.01;58.84;98320.45;126098;1101;22892;-77
2021/05/10 01:36:12;;;;;;;7.23;3.70;;;;;;;9.97;57.64;98319.30;126142;1101;22758;-77
2021/05/10 01:38:54;;;;;;;9.90;4.10;;;;;;;9.95;58.47;98321.44;126117;1101;22740;-77
2021/05/10 01:41:21;;;;;;;10.80;3.60;;;;;;;9.91;58.16;98311.28;126073;1101;22803;-77
2021/05/10 01:43:49;;;;;;;11.05;4.10;;;;;;;9.89;57.95;98322.40;126050;1096;22802;-77
2021/05/10 01:46:16;;;;;;;10.83;3.93;;;;;;;9.86;58.37;98331.88;126073;1101;22744;-77
2021/05/10 01:48:44;;;;;;;12.10;4.60;;;;;;;9.83;58.50;98318.77;126099;1095;25865;-77
2021/05/10 01:51:12;;;;;;;10.65;4.55;;;;;;;9.81;58.72;98328.22;126012;1101;22831;-77
2021/05/10 01:53:40;;;;;;;12.60;3.93;;;;;;;9.78;58.01;98317.85;126083;1101;22758;-77
2021/05/10 01:56:07;;;;;;;11.35;4.35;;;;;;;9.75;58.69;98319.14;126113;1101;22734;-77
2021/05/10 01:58:35;;;;;;;10.33;4.37;;;;;;;9.72;58.80;98326.97;125910;1096;27365;-77
2021/05/10 02:01:03;;;;;;;12.20;4.70;;;;;;;9.68;58.77;98324.75;126118;1096;27144;-77
2021/05/10 02:03:30;;;;;;;9.63;4.30;;;;;;;9.66;58.67;98326.86;126081;1096;27144;-77
2021/05/10 02:05:58;;;;;;;9.20;4.70;;;;;;;9.63;58.86;98329.24;126129;1101;22765;-77
2021/05/10 02:08:28;;;;;;;8.90;4.03;;;;;;;9.60;58.54;98327.84;126067;1101;22761;-77
2021/05/10 02:10:56;;;;;;;9.90;3.55;;;;;;;9.56;59.29;98323.97;126090;1101;22858;-77
2021/05/10 02:13:25;;;;;;;7.55;3.95;;;;;;;9.55;59.22;98326.92;125802;1102;24422;-77
2021/05/10 02:15:58;;;;;;;8.85;3.55;;;;;;;9.54;58.74;98327.98;126166;1096;25986;-77
2021/05/10 02:18:28;;;;;;;10.00;3.50;;;;;;;9.51;58.81;98326.58;125845;1095;27234;-77
2021/05/10 02:20:57;;;;;;;9.35;4.00;;;;;;;9.50;59.30;98330.36;125876;1102;22744;-77
2021/05/10 02:23:30;;;;;;;8.35;3.65;;;;;;;9.49;58.92;98334.13;126106;1096;27426;-77
2021/05/10 02:26:02;;;;;;;11.05;3.80;;;;;;;9.45;60.05;98344.66;126021;1096;26203;-77
2021/05/10 02:28:32;;;;;;;9.20;4.00;;;;;;;9.40;60.42;98336.43;126035;1096;22737;-77
2021/05/10 02:31:01;;;;;;;11.97;5.47;;;;;;;9.31;59.74;98329.69;126150;1101;22758;-77
2021/05/10 02:33:33;;;;;;;14.55;6.00;;;;;;;9.26;60.13;98333.15;126123;1101;22978;-77
2021/05/10 02:36:01;;;;;;;11.50;5.00;;;;;;;9.24;60.36;98331.72;126118;1096;26188;-77
2021/05/10 02:38:29;;;;;;;11.50;5.57;;;;;;;9.20;60.79;98336.80;126067;1101;22744;-77
2021/05/10 02:40:57;;;;;;;9.70;4.35;;;;;;;9.17;60.30;98337.30;126088;1096;26204;-77
2021/05/10 02:43:26;;;;;;;10.10;4.90;;;;;;;9.17;61.17;98331.02;126043;1101;22748;-77
2021/05/10 02:45:54;;;;;;;8.28;4.23;;;;;;;9.13;59.78;98323.34;126160;1096;27150;-77
2021/05/10 02:48:23;;;;;;;9.85;3.93;;;;;;;9.13;60.84;98331.49;126076;1101;22816;-77
2021/05/10 02:50:51;;;;;;;10.60;4.18;;;;;;;9.13;60.97;98338.83;126115;1096;27429;-77
2021/05/10 02:53:19;;;;;;;9.90;4.20;;;;;;;9.10;60.61;98336.58;126208;1101;24142;-77
2021/05/10 02:56:00;;;;;;;9.40;4.35;;;;;;;8.91;61.25;98339.45;126067;1101;22766;-77
2021/05/10 02:58:28;;;;;;;10.17;4.57;;;;;;;8.81;61.45;98341.11;126133;1101;22873;-77
2021/05/10 03:00:55;;;;;;;11.23;4.47;;;;;;;8.72;61.26;98340.63;126080;1101;24377;-77
2021/05/10 03:03:23;;;;;;;10.70;4.25;;;;;;;8.68;62.13;98339.45;126128;1096;22758;-77
2021/05/10 03:05:51;;;;;;;7.80;3.60;;;;;;;8.64;62.17;98339.10;126050;1101;22788;-77
2021/05/10 03:08:19;;;;;;;7.05;3.55;;;;;;;8.66;62.49;98336.16;126105;1101;22830;-77
2021/05/10 03:10:47;;;;;;;8.40;3.90;;;;;;;8.68;61.95;98328.59;126049;1101;22901;-77
2021/05/10 03:13:14;;;;;;;9.05;4.80;;;;;;;8.74;61.37;98330.35;126071;1096;22734;-77
2021/05/10 03:15:42;;;;;;;10.15;4.50;;;;;;;8.78;61.31;98342.38;126042;1101;22758;-77
2021/05/10 03:18:09;;;;;;;11.50;4.10;;;;;;;8.83;61.52;98339.79;126125;1096;22740;-77
2021/05/10 03:20:51;;;;;;;7.80;4.20;;;;;;;8.88;61.66;98337.20;126058;1101;24377;-77
2021/05/10 03:23:18;;;;;;;9.85;3.70;;;;;;;8.91;61.03;98328.58;126075;1096;22768;-77
2021/05/10 03:25:46;;;;;;;8.00;2.90;;;;;;;8.96;60.58;98340.61;126051;1101;22793;-77
2021/05/10 03:28:14;;;;;;;6.20;2.40;;;;;;;9.01;61.14;98343.44;126122;1101;22743;-77
2021/05/10 03:30:41;;;;;;;4.00;2.57;;;;;;;9.06;61.02;98346.28;126055;1096;27116;-77
2021/05/10 03:33:09;;;;;;;5.13;2.90;;;;;;;9.11;60.79;98343.67;126056;1101;22761;-77
2021/05/10 03:35:37;;;;;;;7.10;2.90;;;;;;;9.15;60.50;98346.74;126119;1096;26225;-77
2021/05/10 03:38:04;;;;;;;5.00;2.90;;;;;;;9.16;60.14;98341.08;126045;1096;27234;-77
2021/05/10 03:40:32;;;;;;;6.37;3.30;;;;;;;9.20;60.31;98339.52;126104;1101;22761;-77
2021/05/10 03:43:00;;;;;;;5.95;3.05;;;;;;;9.23;60.29;98339.05;126143;1096;22765;-77
2021/05/10 03:45:27;;;;;;;5.15;2.80;;;;;;;9.29;60.07;98345.41;126051;1101;22758;-77
2021/05/10 03:47:55;;;;;;;5.60;2.60;;;;;;;9.34;59.26;98344.70;126058;1101;22719;-77
2021/05/10 03:50:23;;;;;;;4.25;2.35;;;;;;;9.37;60.10;98330.65;126064;1101;22887;-77
2021/05/10 03:52:51;;;;;;;3.30;2.43;;;;;;;9.43;59.94;98343.27;126133;1101;22719;-77
2021/05/10 03:55:21;;;;;;;7.05;2.55;;;;;;;9.47;59.81;98333.55;126164;1101;22782;-77
2021/05/10 03:57:49;;;;;;;5.70;2.60;;;;;;;9.50;59.97;98333.08;126104;1101;22760;-77
2021/05/10 04:00:18;;;;;;;5.87;2.90;;;;;;;9.54;60.56;98352.45;125947;1096;27382;-77
2021/05/10 04:02:47;;;;;;;6.93;2.88;;;;;;;9.55;60.05;98340.52;126191;1101;22797;-77
2021/05/10 04:16:12;;;;;;;5.50;3.70;;;;;;;9.64;60.87;98352.66;125869;1101;22734;-77
2021/05/10 04:18:40;;;;;;;7.10;3.45;;;;;;;9.63;61.61;98348.27;126138;1101;22765;-77
2021/05/10 04:21:07;;;;;;;4.60;2.70;;;;;;;9.63;61.14;98342.84;126059;1096;27199;-77
2021/05/10 04:23:35;;;;;;;6.67;3.10;;;;;;;9.67;61.60;98341.30;126049;1096;22765;-77
2021/05/10 04:26:02;;;;;;;7.67;3.77;;;;;;;9.73;61.72;98345.77;126058;1101;22741;-77
2021/05/10 04:28:30;;;;;;;6.40;2.80;;;;;;;9.81;61.74;98345.39;126068;1101;22740;-77
2021/05/10 04:30:58;;;;;;;7.40;2.83;;;;;;;9.88;61.69;98334.37;126100;1096;26203;-77
2021/05/10 04:33:33;;;;;;;8.05;3.40;;;;;;;9.96;60.58;98338.58;126051;1096;26213;-77
2021/05/10 04:36:02;;;;;;;5.60;3.05;;;;;;;10.03;61.38;98341.97;125825;1096;27297;-77
2021/05/10 04:38:43;;;;;;;6.95;3.20;;;;;;;10.12;61.10;98340.50;126035;1101;22758;-77
2021/05/10 04:41:11;;;;;;;5.80;3.20;;;;;;;10.19;61.19;98345.79;126059;1101;22716;-77
2021/05/10 04:43:38;;;;;;;7.17;2.87;;;;;;;10.23;60.76;98336.91;126094;1096;22744;-77
2021/05/10 04:46:06;;;;;;;4.65;2.65;;;;;;;10.32;61.01;98344.67;126117;1096;27116;-77
2021/05/10 04:48:33;;;;;;;6.10;3.20;;;;;;;10.38;60.45;98339.08;125970;1101;22773;-77
2021/05/10 04:51:01;;;;;;;6.77;3.30;;;;;;;10.47;60.03;98352.30;126158;1101;22761;-77
2021/05/10 04:53:28;;;;;;;6.93;3.33;;;;;;;10.52;60.23;98353.20;126175;1096;26881;-77
2021/05/10 04:55:57;;;;;;;5.03;2.50;;;;;;;10.59;60.10;98356.58;126111;1101;24412;-77
2021/05/10 04:58:38;;;;;;;6.75;2.95;;;;;;;10.70;59.82;98351.30;126044;1101;22835;-77
2021/05/10 05:01:06;;;;;;;6.43;2.57;;;;;;;10.78;59.48;98346.27;126058;1096;22785;-77
2021/05/10 05:03:33;;;;;;;4.93;2.60;;;;;;;10.85;59.77;98345.25;126059;1096;26415;-77
2021/05/10 05:06:01;;;;;;;6.10;2.50;;;;;;;10.95;59.91;98348.13;126079;1096;26203;-77
2021/05/10 05:08:29;;;;;;;4.65;2.55;;;;;;;11.05;59.79;98352.89;126060;1096;22747;-77
2021/05/10 05:10:56;;;;;;;5.40;2.70;;;;;;;11.11;59.72;98357.35;126150;1101;22740;-77
2021/05/10 05:13:25;;;;;;;4.65;2.70;;;;;;;11.17;59.40;98354.45;126153;1101;22745;-77
2021/05/10 05:15:53;;;;;;;6.63;2.68;;;;;;;11.25;58.94;98347.73;126136;1101;22926;-77
2021/05/10 05:18:21;;;;;;;7.97;2.93;;;;;;;11.33;58.47;98358.21;126183;1101;22744;-77
2021/05/10 05:20:49;;;;;;;6.50;2.80;;;;;;;11.45;58.62;98360.80;126113;1095;26324;-77
2021/05/10 05:23:25;;;;;;;11.05;3.30;;;;;;;11.54;58.48;98359.30;126349;1101;22758;-77
2021/05/10 05:25:58;;;;;;;8.50;3.50;;;;;;;11.66;58.21;98363.79;126377;1101;22744;-77
2021/05/10 05:28:28;;;;;;;8.40;3.50;;;;;;;11.74;58.00;98358.72;126061;1101;22742;-77
2021/05/10 05:30:56;;;;;;;11.65;3.48;;;;;;;11.85;58.44;98361.56;126295;1101;22762;-77
2021/05/10 05:33:24;;;;;;;10.20;3.35;;;;;;;11.96;57.56;98352.43;126246;1101;23022;-77
2021/05/10 05:35:53;;;;;;;9.75;2.90;;;;;;;12.10;57.57;98358.31;126272;1095;22756;-77
2021/05/10 05:38:36;;;;;;;10.65;3.20;;;;;;;12.23;57.14;98360.61;126217;1096;27343;-77
2021/05/10 05:41:04;;;;;;;6.80;2.85;;;;;;;12.35;56.94;98346.80;126192;1101;22744;-77
2021/05/10 05:43:32;;;;;;;8.80;3.40;;;;;;;12.48;55.85;98351.01;126297;1095;25865;-77
2021/05/10 05:45:59;;;;;;;5.90;2.70;;;;;;;12.59;55.42;98349.18;126247;1096;22758;-77
2021/05/10 05:48:41;;;;;;;5.30;2.55;;;;;;;12.70;55.81;98334.53;126213;1101;22758;-77
2021/05/10 05:51:14;;;;;;;8.70;3.27;;;;;;;12.80;56.31;98345.55;126137;1095;25865;-77
2021/05/10 05:53:42;;;;;;;10.85;3.80;;;;;;;12.93;55.69;98346.18;126288;1101;22765;-77
2021/05/10 05:56:09;;;;;;;6.15;3.25;;;;;;;13.02;54.99;98341.86;126321;1101;22764;-77
2021/05/10 05:58:51;;;;;;;11.65;3.20;;;;;;;13.12;54.96;98344.66;126273;1101;22744;-77
2021/05/10 06:01:20;;;;;;;9.25;2.93;;;;;;;13.22;54.37;98346.62;126229;1101;22774;-77
2021/05/10 06:04:03;;;;;;;7.13;3.10;;;;;;;13.35;53.77;98348.07;126146;1101;24555;-77
2021/05/10 06:06:45;;;;;;;7.60;2.90;;;;;;;13.48;54.58;98337.48;126215;1101;22801;-77
2021/05/10 06:09:13;;;;;;;10.77;3.17;;;;;;;13.61;54.61;98343.55;126267;1101;22744;-77
2021/05/10 06:11:55;;;;;;;7.70;2.30;;;;;;;13.75;53.37;98354.83;126148;1101;23442;-77
2021/05/10 06:14:37;;;;;;;7.60;2.40;;;;;;;13.88;53.65;98348.83;126275;1101;22734;-77
2021/05/10 06:17:04;;;;;;;10.15;2.75;;;;;;;14.01;52.83;98339.30;126202;1101;22748;-77
2021/05/10 06:19:34;;;;;;;10.15;3.35;;;;;;;14.13;52.96;98336.30;126286;1096;22826;-77
2021/05/10 06:22:01;;;;;;;8.95;2.80;;;;;;;14.24;52.48;98338.78;126230;1101;22758;-77
2021/05/10 06:24:29;;;;;;;14.30;2.90;;;;;;;14.36;52.61;98334.95;126158;1096;27187;-77
2021/05/10 06:26:57;;;;;;;6.85;2.15;;;;;;;14.52;52.99;98341.27;126145;1101;22889;-77
2021/05/10 06:29:24;;;;;;;5.20;2.43;;;;;;;14.67;52.30;98338.56;125948;1102;22784;-77
2021/05/10 06:31:52;;;;;;;8.60;2.70;;;;;;;14.86;51.61;98336.09;126218;1095;27473;-77
2021/05/10 06:34:19;;;;;;;7.20;2.60;;;;;;;15.02;51.53;98330.59;126073;1101;24126;-78
2021/05/10 06:36:47;;;;;;;9.87;2.43;;;;;;;15.13;51.04;98329.45;126074;1096;26210;-78
2021/05/10 06:39:14;;;;;;;6.80;2.25;;;;;;;15.21;50.22;98328.05;126120;1101;22761;-78
2021/05/10 06:41:42;;;;;;;10.50;2.80;;;;;;;15.28;50.48;98326.68;126064;1101;22819;-78
2021/05/10 06:44:10;;;;;;;10.00;2.70;;;;;;;15.34;49.92;98327.48;126111;1101;22875;-78
2021/05/10 06:46:38;;;;;;;9.38;3.03;;;;;;;15.39;50.23;98324.72;126049;1101;22726;-78
2021/05/10 06:49:20;;;;;;;7.05;2.50;;;;;;;15.45;49.72;98331.02;126050;1101;22778;-78
2021/05/10 06:51:47;;;;;;;6.40;2.60;;;;;;;15.51;49.76;98316.99;126051;1096;26188;-78
2021/05/10 06:54:15;;;;;;;5.35;2.55;;;;;;;15.59;49.80;98326.56;126076;1101;22886;-78
2021/05/10 06:56:43;;;;;;;8.15;2.60;;;;;;;15.67;49.47;98322.39;126058;1096;26229;-78
2021/05/10 06:59:13;;;;;;;5.90;2.60;;;;;;;15.73;49.71;98340.50;126112;1101;24516;-78
2021/05/10 07:01:40;;;;;;;5.40;2.07;;;;;;;15.80;49.49;98330.06;125807;1102;22735;-78
2021/05/10 07:04:08;;;;;;;3.08;1.83;;;;;;;15.87;49.19;98322.33;125810;1101;22740;-78
2021/05/10 07:06:36;;;;;;;3.63;1.97;;;;;;;16.00;49.47;98329.12;126122;1101;22823;-78
2021/05/10 07:09:04;;;;;;;7.40;2.30;;;;;;;16.16;49.38;98326.29;126071;1101;23575;-78
2021/05/10 07:11:33;;;;;;;3.43;2.15;;;;;;;16.29;49.77;98314.67;126192;1096;22907;-78
2021/05/10 07:14:15;;;;;;;8.18;2.05;;;;;;;16.49;49.28;98310.94;126038;1096;22831;-78
2021/05/10 07:16:43;;;;;;;7.13;2.27;;;;;;;16.67;48.35;98309.41;125785;1101;24383;-78
2021/05/10 07:19:10;;;;;;;4.18;1.98;;;;;;;16.81;47.90;98315.87;126125;1101;24401;-78
2021/05/10 07:21:38;;;;;;;5.18;2.10;;;;;;;16.95;47.03;98324.30;125880;1101;22761;-78
2021/05/10 07:24:20;;;;;;;4.60;2.00;;;;;;;17.16;47.88;98324.91;126036;1101;22734;-76
2021/05/10 07:26:47;;;;;;;7.03;1.97;;;;;;;17.36;46.99;98320.30;126038;1102;22747;-76
2021/05/10 07:29:29;;;;;;;8.48;2.03;;;;;;;17.58;46.05;98323.34;126066;1101;22734;-76
2021/05/10 07:31:57;;;;;;;7.38;2.28;;;;;;;17.77;45.40;98315.09;126089;1101;22747;-78
2021/05/10 07:34:25;;;;;;;6.15;2.03;;;;;;;17.90;45.17;98312.75;126096;1101;22734;-78
2021/05/10 07:36:53;;;;;;;4.60;1.80;;;;;;;18.00;45.34;98307.91;126075;1096;26213;-78
2021/05/10 07:39:20;;;;;;;3.87;1.60;;;;;;;18.12;44.19;98314.94;126061;1101;22761;-78
2021/05/10 07:41:48;;;;;;;5.45;1.73;;;;;;;18.18;43.17;98306.30;126085;1101;22743;-78
2021/05/10 07:44:16;;;;;;;7.43;1.73;;;;;;;18.20;43.06;98309.57;126105;1096;26200;-78
2021/05/10 07:46:43;;;;;;;9.08;2.10;;;;;;;18.26;43.05;98315.81;126107;1101;22792;-78
2021/05/10 07:49:26;;;;;;;9.33;2.70;;;;;;;18.37;42.27;98310.96;126068;1101;22764;-77
2021/05/10 07:51:54;;;;;;;11.00;2.45;;;;;;;18.48;41.62;98303.34;126152;1096;26417;-78
2021/05/10 07:54:21;;;;;;;5.33;2.30;;;;;;;18.58;40.85;98303.18;125794;1102;22749;-78
2021/05/10 07:57:03;;;;;;;14.00;2.60;;;;;;;18.63;40.03;98308.61;125815;1102;22942;-76
2021/05/10 07:59:30;;;;;;;5.18;2.40;;;;;;;18.70;41.23;98306.28;126063;1101;24526;-78
2021/05/10 08:01:59;;;;;;;6.20;2.33;;;;;;;18.81;40.19;98312.44;126050;1096;27123;-78
2021/05/10 08:04:27;;;;;;;;;;;;;;;18.94;40.28;98311.67;125991;1102;22743;-78
2021/05/10 08:06:55;;;;;;;4.58;1.90;;;;;;;19.08;40.72;98311.70;126044;1101;23666;-78
2021/05/10 08:09:23;;;;;;;3.93;1.60;;;;;;;19.26;40.45;98309.97;125817;1104;22753;-79
2021/05/10 08:11:51;;;;;;;8.63;1.48;;;;;;;19.45;39.87;98301.59;125983;1102;22774;-79
2021/05/10 08:14:20;;;;;;;2.88;1.70;;;;;;;19.65;39.91;98316.92;126015;1097;27160;-79
2021/05/10 08:16:51;;;;;;;3.50;1.40;;;;;;;19.85;38.58;98310.19;126136;1097;26297;-79
2021/05/10 08:19:19;;;;;;;4.85;1.53;;;;;;;20.03;37.50;98308.41;126075;1096;22803;-79
2021/05/10 08:21:47;;;;;;;3.43;1.58;;;;;;;20.17;37.79;98311.14;126065;1096;26687;-79
2021/05/10 08:24:14;;;;;;;7.35;1.20;;;;;;;20.32;37.58;98311.91;125808;1096;26213;-79
2021/05/10 08:26:42;;;;;;;2.60;1.35;;;;;;;20.46;37.58;98307.13;126095;1101;22806;-79
2021/05/10 08:29:09;;;;;;;5.20;1.10;;;;;;;20.62;37.19;98313.95;126038;1101;22910;-79
2021/05/10 08:31:37;;;;;;;2.55;1.00;;;;;;;20.78;36.18;98308.04;125881;1097;27637;-79
2021/05/10 08:34:05;;;;;;;4.50;1.20;;;;;;;20.93;36.23;98299.34;126075;1096;22741;-79
2021/05/10 08:36:32;;;;;;;3.50;0.90;;;;;;;21.08;35.39;98300.06;126070;1101;22741;-79
2021/05/10 08:39:00;;;;;;;1.00;0.80;;;;;;;21.22;35.31;98296.05;126086;1101;22740;-79
2021/05/10 08:41:41;;;;;;;1.83;0.70;;;;;;;21.37;33.33;98300.36;126075;1096;25867;-77
2021/05/10 08:44:11;;;;;;;3.13;1.00;;;;;;;21.52;32.72;98301.09;126110;1101;22725;-77
2021/05/10 08:46:41;;;;;;;1.28;0.80;;;;;;;21.64;33.23;98301.30;126075;1097;25864;-79
2021/05/10 08:49:10;;;;;;;3.55;1.03;;;;;;;21.75;33.50;98296.27;126106;1101;22748;-76
2021/05/10 08:51:41;;;;;;;1.93;1.00;;;;;;;21.90;34.16;98304.13;125945;1097;27625;-77
2021/05/10 08:54:25;;;;;;;2.88;1.10;;;;;;;22.04;33.70;98292.86;125889;1097;25960;-77
2021/05/10 08:56:56;;;;;;;3.55;1.00;;;;;;;22.17;33.16;98294.68;126090;1101;22764;-79
2021/05/10 08:59:45;;;;;;;1.48;0.98;;;;;;;22.33;33.53;98294.23;125927;1102;22747;-77
2021/05/10 09:02:29;;;;;;;2.50;0.80;;;;;;;22.47;32.61;98283.77;126128;1101;24412;-77
2021/05/10 09:05:18;;;;;;;1.73;0.85;;;;;;;22.59;32.42;98282.28;126219;1101;22806;-78
2021/05/10 09:08:13;;;;;;;2.10;0.90;;;;;;;22.70;31.53;98280.78;126101;1101;22822;-78
2021/05/10 09:11:14;;;;;;;2.35;1.00;;;;;;;22.82;32.73;98275.36;126255;1101;22755;-78
2021/05/10 09:13:48;;;;;;;1.55;0.80;;;;;;;22.98;31.46;98267.31;126209;1101;24263;-78
2021/05/10 09:16:18;;;;;;;4.00;1.00;;;;;;;23.09;30.19;98270.60;126290;1096;26219;-77
2021/05/10 09:18:52;;;;;;;0.75;0.63;;;;;;;23.19;29.82;98264.66;126222;1101;22729;-78
2021/05/10 09:21:25;;;;;;;0.93;0.70;;;;;;;23.29;29.44;98258.73;126482;1101;22738;-77
2021/05/10 09:24:26;;;;;;;1.58;0.80;;;;;;;23.44;30.57;98259.31;126360;1101;24552;-77
2021/05/10 09:26:54;;;;;;;1.75;0.90;;;;;;;23.59;30.13;98261.52;126302;1101;22852;-77
2021/05/10 09:29:30;;;;;;;3.40;0.80;;;;;;;23.72;29.74;98259.64;126361;1101;25612;-77
2021/05/10 09:32:00;;;;;;;1.28;0.90;;;;;;;23.87;28.59;98263.84;126386;1101;22759;-77
2021/05/10 09:34:27;;;;;;;1.30;0.88;;;;;;;24.02;29.06;98257.66;126307;1101;22734;-77
2021/05/10 09:37:02;;;;;;;3.88;0.80;;;;;;;24.22;28.64;98263.55;126583;1101;22728;-77
2021/05/10 09:39:43;;;;;;;;;;;;;;;24.40;28.38;98256.69;126492;1101;22718;-77
2021/05/10 09:42:13;;;;;;;0.95;0.60;;;;;;;24.57;28.54;98261.30;126507;1096;21465;-78
2021/05/10 09:44:43;;;;;;;2.85;0.90;;;;;;;24.71;26.71;98260.19;126486;1101;22734;-78
2021/05/10 09:47:20;;;;;;;1.88;0.68;;;;;;;24.77;26.84;98259.63;126390;1096;26254;-78
2021/05/10 09:49:51;;;;;;;1.20;0.80;;;;;;;24.89;26.60;98261.61;125963;1096;22734;-77
2021/05/10 09:52:25;;;;;;;3.93;1.00;;;;;;;25.03;27.40;98263.28;126354;1101;23670;-77
2021/05/10 09:55:05;;;;;;;1.50;0.70;;;;;;;25.19;27.31;98270.60;126265;1101;22796;-78
2021/05/10 09:57:55;;;;;;;1.63;0.83;;;;;;;25.37;27.29;98262.05;126384;1101;22878;-78
2021/05/10 10:00:26;;;;;;;5.20;1.20;;;;;;;25.53;27.46;98260.22;126361;1101;22740;-78
2021/05/10 10:02:56;;;;;;;2.75;0.80;;;;;;;25.65;26.98;98259.38;126235;1101;22778;-78
2021/05/10 10:05:24;;;;;;;;;;;;;;;25.81;26.13;98247.50;126202;1095;25865;-78
2021/05/10 10:07:55;;;;;;;2.88;0.95;;;;;;;25.92;26.57;98245.84;126108;1101;21458;-78
2021/05/10 10:10:23;;;;;;;3.33;1.00;;;;;;;26.05;26.35;98241.90;126109;1095;26238;-78
2021/05/10 10:12:51;;;;;;;5.13;0.87;;;;;;;26.12;26.61;98239.32;126150;1095;25864;-78
2021/05/10 10:15:19;;;;;;;3.95;1.00;;;;;;;26.13;26.58;98240.13;126080;1096;22744;-78
2021/05/10 10:17:47;;;;;;;3.48;1.00;;;;;;;26.17;27.28;98237.44;126149;1096;22765;-78
2021/05/10 10:20:17;;;;;;;3.60;1.00;;;;;;;26.22;25.89;98232.41;126099;1101;22745;-78
2021/05/10 10:22:51;;;;;;;1.70;1.03;;;;;;;26.32;26.65;98231.11;126122;1101;22765;-78
2021/05/10 10:25:19;;;;;;;2.47;0.90;;;;;;;26.42;26.69;98240.94;126096;1101;22760;-78
2021/05/10 10:27:50;;;;;;;2.85;1.05;;;;;;;26.52;27.21;98232.88;126054;1101;22765;-78
2021/05/10 10:30:21;;;;;;;3.90;0.93;;;;;;;26.64;26.63;98217.25;126082;1101;22773;-78
2021/05/10 10:33:08;;;;;;;2.20;1.00;;;;;;;26.77;25.96;98215.99;126062;1101;22737;-78
2021/05/10 10:35:51;;;;;;;3.58;1.00;;;;;;;26.85;26.22;98220.61;126039;1101;22737;-78
2021/05/10 10:38:31;;;;;;;6.80;0.98;;;;;;;27.00;25.93;98223.77;126127;1096;24575;-78
2021/05/10 10:41:18;;;;;;;2.93;0.90;;;;;;;27.16;25.17;98219.01;126085;1101;22761;-78
2021/05/10 10:43:48;;;;;;;2.85;0.98;;;;;;;27.26;26.44;98217.63;126091;1101;24738;-78
2021/05/10 10:46:29;;;;;;;1.60;0.90;;;;;;;27.34;25.23;98215.84;126107;1101;22851;-78
2021/05/10 10:49:17;;;;;;;4.23;1.30;;;;;;;27.40;24.74;98209.62;126082;1096;26238;-78
2021/05/10 10:51:52;;;;;;;4.48;0.98;;;;;;;27.43;24.76;98211.70;126031;1101;24376;-78
2021/05/10 10:54:25;;;;;;;2.75;0.83;;;;;;;27.45;24.76;98212.14;126097;1101;22825;-78
2021/05/10 10:56:58;;;;;;;5.40;1.20;;;;;;;27.55;25.58;98201.55;126004;1101;22825;-78
2021/05/10 10:59:38;;;;;;;3.90;0.70;;;;;;;27.74;25.52;98204.39;126279;1101;22899;-78
2021/05/10 11:02:23;;;;;;;3.98;1.03;;;;;;;27.92;25.00;98204.01;126291;1101;23530;-78
2021/05/10 11:05:19;;;;;;;1.58;0.88;;;;;;;28.02;23.93;98195.03;126391;1101;22758;-78
2021/05/10 11:08:14;;;;;;;1.28;0.75;;;;;;;28.09;24.17;98195.18;126143;1101;22767;-78
2021/05/10 11:10:55;;;;;;;3.40;1.10;;;;;;;28.15;23.45;98198.48;125941;1101;22732;-78
2021/05/10 11:13:28;;;;;;;2.15;0.90;;;;;;;28.19;23.29;98200.20;126032;1095;27220;-78
2021/05/10 11:16:10;;;;;;;2.08;0.85;;;;;;;28.25;24.78;98189.50;126490;1101;22746;-78
2021/05/10 11:18:43;;;;;;;4.30;0.90;;;;;;;28.36;24.25;98196.11;126416;1097;27374;-78
2021/05/10 11:21:38;;;;;;;2.60;0.80;;;;;;;28.50;23.93;98197.58;126243;1101;23315;-78
2021/05/10 11:24:12;;;;;;;5.98;0.93;;;;;;;28.63;23.26;98189.84;126126;1096;27595;-79
2021/05/10 11:26:58;;;;;;;2.10;1.20;;;;;;;28.76;23.47;98199.70;126154;1101;22803;-79
2021/05/10 11:29:29;;;;;;;2.85;0.95;;;;;;;28.94;23.24;98186.80;126281;1095;27336;-79
2021/05/10 11:31:59;;;;;;;2.63;1.20;;;;;;;29.11;22.90;98176.25;126297;1101;22765;-79
2021/05/10 11:34:41;;;;;;;5.40;1.00;;;;;;;29.18;22.79;98168.01;125831;1101;24549;-79
2021/05/10 11:37:08;;;;;;;3.43;0.97;;;;;;;29.22;22.38;98171.67;126262;1101;22743;-78
2021/05/10 11:39:38;;;;;;;3.13;0.93;;;;;;;29.26;22.04;98171.73;126150;1096;23468;-78
2021/05/10 11:42:11;;;;;;;3.63;1.25;;;;;;;29.37;22.33;98172.69;126158;1101;22747;-78
2021/05/10 11:44:45;;;;;;;3.28;1.88;;;;;;;29.46;22.50;98158.39;126265;1101;24379;-78
2021/05/10 11:47:14;;;;;;;5.48;1.28;;;;;;;29.53;22.44;98164.94;126085;1101;22747;-78
2021/05/10 11:49:49;;;;;;;5.45;1.48;;;;;;;29.57;22.16;98161.34;126139;1095;27326;-78
2021/05/10 11:52:22;;;;;;;3.08;1.05;;;;;;;29.66;22.52;98153.45;126298;1101;22741;-78
2021/05/10 11:54:56;;;;;;;2.43;0.90;;;;;;;29.78;20.69;98152.45;125946;1096;27268;-78
2021/05/10 11:57:29;;;;;;;5.88;0.90;;;;;;;29.79;21.15;98143.64;126158;1096;27333;-78